Time;durP1;ratioP1;P1;durP2;ratioP2;P2;SDS_P1;SDS_P2;PMS_P1;PMS_P2;Temp;Humidity;BMP_temperature;BMP_pressure;BME280_temperature;BME280_humidity;BME280_pressure;Samples;Min_cycle;Max_cycle;Signal;HPM_P1;HPM_P2
2022/06/07 00:02:10;;;;;;;0.70;0.70;;;;;;;12.39;59.41;97610.66;4974670;28;20055;-60
2022/06/07 00:04:38;;;;;;;0.28;0.28;;;;;;;12.44;59.59;97602.41;4974381;28;20531;-61
2022/06/07 00:07:04;;;;;;;0.20;0.20;;;;;;;12.47;59.23;97601.06;4974549;28;20436;-62
2022/06/07 00:09:30;;;;;;;2.25;1.25;;;;;;;12.50;59.34;97602.41;4974562;28;20523;-61
2022/06/07 00:11:56;;;;;;;0.80;0.60;;;;;;;12.49;59.19;97587.00;4974623;28;20130;-62
2022/06/07 00:14:21;;;;;;;0.25;0.25;;;;;;;12.54;59.19;97593.31;4973718;28;20049;-61
2022/06/07 00:16:47;;;;;;;0.20;0.20;;;;;;;12.56;59.28;97584.78;4973948;28;20074;-61
2022/06/07 00:19:13;;;;;;;2.30;0.40;;;;;;;12.60;59.18;97588.63;4974133;28;20564;-61
2022/06/07 00:21:39;;;;;;;0.35;0.35;;;;;;;12.61;58.76;97582.84;4974275;28;20536;-60
2022/06/07 00:24:05;;;;;;;2.35;0.35;;;;;;;12.61;59.19;97563.56;4974155;28;20125;-61
2022/06/07 00:26:33;;;;;;;1.08;0.35;;;;;;;12.61;59.31;97563.56;4974063;28;20050;-61
2022/06/07 00:29:00;;;;;;;1.55;0.60;;;;;;;12.60;58.89;97556.41;4974102;28;20077;-61
2022/06/07 00:31:27;;;;;;;0.43;0.43;;;;;;;12.60;59.23;97550.06;4973930;28;20133;-61
2022/06/07 00:33:54;;;;;;;0.20;0.20;;;;;;;12.64;58.97;97566.88;4973996;28;20051;-61
2022/06/07 00:36:19;;;;;;;0.32;0.32;;;;;;;12.66;58.95;97557.25;4974048;28;20042;-64
2022/06/07 00:38:45;;;;;;;0.40;0.40;;;;;;;12.71;58.81;97553.63;4974028;28;20054;-60
2022/06/07 00:41:12;;;;;;;0.50;0.50;;;;;;;12.81;58.57;97542.59;4974114;28;20050;-61
2022/06/07 00:44:02;;;;;;;0.20;0.20;;;;;;;12.90;58.46;97531.81;4973205;28;20057;-61
2022/06/07 00:46:27;;;;;;;0.13;0.13;;;;;;;13.01;58.12;97529.84;4988419;28;20092;-60
2022/06/07 00:48:53;;;;;;;0.70;0.70;;;;;;;13.09;57.92;97521.00;4973031;28;20043;-61
2022/06/07 00:51:19;;;;;;;0.20;0.20;;;;;;;13.15;57.97;97519.84;4973500;28;20054;-61
2022/06/07 00:53:45;;;;;;;1.27;0.30;;;;;;;13.16;57.73;97521.47;4973726;28;20042;-62
2022/06/07 00:56:11;;;;;;;0.30;0.30;;;;;;;13.15;57.90;97512.41;4973684;28;20405;-65
2022/06/07 00:58:37;;;;;;;0.20;0.20;;;;;;;13.19;57.61;97509.91;4973467;28;20046;-62
2022/06/07 01:01:03;;;;;;;0.47;0.45;;;;;;;13.25;57.88;97510.69;4973288;28;20077;-62
2022/06/07 01:03:30;;;;;;;0.32;0.32;;;;;;;13.26;57.92;97499.38;4973446;28;20047;-63
2022/06/07 01:10:43;;;;;;;0.20;0.20;;;;;;;13.33;57.46;97504.59;4973555;28;20047;-62
2022/06/07 01:11:25;;;;;;;0.10;0.10;;;;;;;13.44;57.40;97502.63;4973987;28;20053;-62
2022/06/07 01:13:50;;;;;;;0.20;0.20;;;;;;;13.43;57.48;97492.72;4973067;28;20361;-61
2022/06/07 01:16:16;;;;;;;0.68;0.68;;;;;;;13.44;57.55;97486.06;4973086;28;20428;-61
2022/06/07 01:18:42;;;;;;;0.30;0.30;;;;;;;13.49;57.33;97486.06;4973091;28;20527;-62
2022/06/07 01:21:15;;;;;;;0.60;0.50;;;;;;;13.51;57.15;97485.75;4973419;28;20117;-62
2022/06/07 01:23:42;;;;;;;0.35;0.30;;;;;;;13.54;57.01;97477.72;4973221;28;20113;-62
2022/06/07 01:26:10;;;;;;;0.20;0.20;;;;;;;13.57;57.02;97485.41;4973338;28;20051;-62
2022/06/07 01:28:36;;;;;;;0.20;0.20;;;;;;;13.56;57.24;97475.53;4973698;28;20417;-62
2022/06/07 01:31:02;;;;;;;0.20;0.20;;;;;;;13.54;57.06;97472.22;4988209;28;20046;-60
2022/06/07 01:33:27;;;;;;;0.10;0.10;;;;;;;13.54;57.07;97474.16;4973079;28;20030;-62
2022/06/07 01:36:22;;;;;;;0.20;0.20;;;;;;;13.51;57.30;97455.44;4972930;28;20054;-62
2022/06/07 01:44:18;;;;;;;0.30;0.30;;;;;;;13.58;57.00;97464.19;4972798;28;20050;-63
2022/06/07 01:46:44;;;;;;;0.13;0.13;;;;;;;13.63;56.66;97453.97;4972701;28;20043;-62
2022/06/07 01:49:09;;;;;;;0.20;0.20;;;;;;;13.65;56.61;97460.00;4972792;28;20042;-62
2022/06/07 01:51:35;;;;;;;0.10;0.10;;;;;;;13.69;56.88;97454.72;4987247;28;20085;-62
2022/06/07 01:54:02;;;;;;;0.15;0.15;;;;;;;13.73;56.47;97450.28;4972956;28;20054;-63
2022/06/07 01:56:28;;;;;;;0.22;0.22;;;;;;;13.75;56.71;97447.22;4972727;28;20127;-62
2022/06/07 01:58:54;;;;;;;0.50;0.50;;;;;;;13.80;56.60;97447.19;4972700;28;20114;-62
2022/06/07 02:01:19;;;;;;;0.20;0.20;;;;;;;13.82;56.62;97444.97;4975315;28;20055;-61
2022/06/07 02:03:45;;;;;;;0.20;0.20;;;;;;;13.87;56.49;97433.91;4976551;28;20039;-60
2022/06/07 02:06:12;;;;;;;1.00;0.55;;;;;;;13.99;56.02;97437.06;4991225;28;20518;-62
2022/06/07 02:08:40;;;;;;;2.50;0.65;;;;;;;14.07;55.85;97435.63;4976717;28;20061;-61
2022/06/07 02:11:12;;;;;;;0.32;0.32;;;;;;;14.17;55.61;97435.50;4976658;28;20078;-61
2022/06/07 02:13:38;;;;;;;0.20;0.20;;;;;;;14.20;55.62;97440.44;4976288;28;20527;-62
2022/06/07 02:16:04;;;;;;;0.15;0.15;;;;;;;14.24;55.56;97431.59;4976557;28;20050;-61
2022/06/07 02:18:31;;;;;;;0.10;0.10;;;;;;;14.32;55.60;97426.22;4976367;28;20183;-62
2022/06/07 02:20:57;;;;;;;0.20;0.20;;;;;;;14.43;55.19;97426.13;4976431;28;20046;-61
2022/06/07 02:23:24;;;;;;;0.30;0.30;;;;;;;14.62;54.69;97418.75;4975949;28;20054;-62
2022/06/07 02:25:53;;;;;;;0.20;0.20;;;;;;;14.92;54.12;97413.94;4975951;28;20050;-62
2022/06/07 02:28:22;;;;;;;0.20;0.20;;;;;;;15.26;53.52;97410.13;4975970;28;20042;-61
2022/06/07 02:30:48;;;;;;;0.32;0.32;;;;;;;15.73;52.54;97402.72;4976163;28;20058;-62
2022/06/07 02:33:15;;;;;;;0.20;0.20;;;;;;;16.06;51.89;97397.19;4975711;28;20047;-61
2022/06/07 02:35:43;;;;;;;0.40;0.40;;;;;;;16.31;51.75;97403.34;4975985;28;20497;-61
2022/06/07 02:38:09;;;;;;;0.10;0.10;;;;;;;16.39;51.45;97401.84;4975922;28;20095;-62
2022/06/07 02:40:35;;;;;;;0.25;0.25;;;;;;;16.48;51.59;97400.00;4976013;28;20065;-62
2022/06/07 02:43:03;;;;;;;0.10;0.10;;;;;;;16.61;51.18;97398.34;4975788;28;20050;-64
2022/06/07 02:45:29;;;;;;;0.20;0.20;;;;;;;16.72;51.27;97405.28;4990118;28;20074;-63
2022/06/07 02:47:55;;;;;;;0.47;0.47;;;;;;;17.01;50.77;97384.75;4978456;28;20140;-63
2022/06/07 02:50:22;;;;;;;0.10;0.10;;;;;;;17.20;50.27;97400.44;4991887;28;20493;-63
2022/06/07 02:52:48;;;;;;;0.10;0.10;;;;;;;17.12;50.80;97397.25;4993525;28;20049;-67
2022/06/07 02:55:14;;;;;;;0.57;0.35;;;;;;;16.88;51.31;97396.69;4994813;28;20054;-62
2022/06/07 02:57:40;;;;;;;0.15;0.15;;;;;;;16.48;51.99;97410.25;4995334;28;20057;-62
2022/06/07 03:00:09;;;;;;;0.35;0.35;;;;;;;16.08;53.33;97402.44;4994792;28;20177;-62
2022/06/07 03:02:34;;;;;;;0.10;0.10;;;;;;;15.75;53.84;97405.19;5000614;28;20137;-61
2022/06/07 03:15:48;;;;;;;1.52;1.45;;;;;;;14.75;55.08;97397.03;4971983;28;20086;-61
2022/06/07 03:18:14;;;;;;;0.98;0.63;;;;;;;14.75;54.93;97403.38;4974938;28;20184;-62
2022/06/07 03:20:41;;;;;;;0.20;0.20;;;;;;;14.82;54.73;97400.25;4975681;28;20119;-60
2022/06/07 03:23:07;;;;;;;0.20;0.20;;;;;;;14.88;54.67;97388.00;5006369;28;20537;-64
2022/06/07 03:25:33;;;;;;;0.47;0.32;;;;;;;14.98;54.16;97398.09;5014348;28;20067;-62
2022/06/07 03:27:59;;;;;;;0.20;0.20;;;;;;;15.01;53.92;97398.31;5014112;28;20034;-63
2022/06/07 03:30:25;;;;;;;0.22;0.22;;;;;;;15.01;54.13;97403.03;5014049;28;20037;-63
2022/06/07 03:32:51;;;;;;;0.30;0.30;;;;;;;15.03;54.12;97395.25;5001198;28;20478;-62
2022/06/07 03:35:17;;;;;;;0.60;0.17;;;;;;;15.06;53.89;97405.72;4994348;28;20171;-62
2022/06/07 03:37:43;;;;;;;0.20;0.20;;;;;;;14.98;53.80;97398.91;4994444;28;20038;-62
2022/06/07 03:40:13;;;;;;;0.20;0.20;;;;;;;14.94;54.13;97392.34;4994197;28;20045;-62
2022/06/07 03:42:39;;;;;;;2.08;0.30;;;;;;;14.83;54.32;97407.44;4994113;28;20050;-61
2022/06/07 03:45:05;;;;;;;0.30;0.30;;;;;;;14.78;54.45;97400.03;4993592;28;20559;-62
2022/06/07 03:47:34;;;;;;;0.47;0.47;;;;;;;14.72;54.52;97395.69;4994038;28;20423;-62
2022/06/07 03:49:59;;;;;;;0.20;0.20;;;;;;;14.78;54.46;97401.97;4994123;28;20424;-63
2022/06/07 03:52:25;;;;;;;0.30;0.30;;;;;;;14.86;54.07;97406.84;4994266;28;20048;-62
2022/06/07 03:54:50;;;;;;;0.10;0.10;;;;;;;14.89;54.16;97414.53;4994016;28;20544;-61
2022/06/07 03:57:16;;;;;;;0.20;0.20;;;;;;;14.92;54.02;97400.13;4994538;28;20042;-62
2022/06/07 03:59:43;;;;;;;0.32;0.30;;;;;;;14.92;54.36;97413.94;4993758;28;20046;-61
2022/06/07 04:02:11;;;;;;;0.25;0.25;;;;;;;14.88;54.56;97404.59;4993819;28;20054;-62
2022/06/07 04:04:37;;;;;;;0.35;0.35;;;;;;;14.75;54.52;97411.66;4993854;28;20046;-61
2022/06/07 04:09:47;;;;;;;0.20;0.20;;;;;;;14.37;55.41;97419.84;4993956;28;20048;-61
2022/06/07 04:12:16;;;;;;;0.38;0.38;;;;;;;14.29;55.61;97414.97;4993898;28;20121;-62
2022/06/07 04:14:43;;;;;;;0.10;0.10;;;;;;;14.14;56.22;97413.19;4993381;28;20045;-61
2022/06/07 04:17:10;;;;;;;0.28;0.28;;;;;;;13.91;56.73;97412.84;4993877;28;20514;-63
2022/06/07 04:19:38;;;;;;;0.10;0.10;;;;;;;13.68;57.58;97414.47;4993584;28;20042;-62
2022/06/07 04:22:04;;;;;;;0.10;0.10;;;;;;;13.55;57.65;97401.34;4993278;28;20057;-63
2022/06/07 04:24:30;;;;;;;0.30;0.30;;;;;;;13.53;57.64;97418.19;4974205;28;20052;-62
2022/06/07 04:26:56;;;;;;;1.98;0.30;;;;;;;13.40;58.04;97421.59;4974101;28;20445;-63
2022/06/07 04:29:23;;;;;;;0.30;0.30;;;;;;;13.22;58.46;97420.31;4973875;28;20153;-65
2022/06/07 04:31:49;;;;;;;0.98;0.40;;;;;;;13.13;58.93;97420.09;4973989;28;20047;-62
2022/06/07 04:34:14;;;;;;;0.20;0.20;;;;;;;13.01;59.21;97425.13;4973908;28;20058;-63
2022/06/07 04:36:40;;;;;;;0.17;0.17;;;;;;;12.98;59.55;97410.00;4973723;28;20049;-63
2022/06/07 04:39:07;;;;;;;0.10;0.10;;;;;;;12.87;59.58;97412.00;4973539;28;20058;-63
2022/06/07 04:41:33;;;;;;;0.47;0.47;;;;;;;12.76;59.99;97415.91;4988322;28;20046;-63
2022/06/07 04:44:00;;;;;;;0.20;0.20;;;;;;;12.62;60.37;97412.94;4973436;28;20189;-64
2022/06/07 04:46:27;;;;;;;0.10;0.10;;;;;;;12.51;60.70;97408.59;4973676;28;20035;-64
2022/06/07 04:48:54;;;;;;;0.20;0.20;;;;;;;12.47;60.77;97393.72;4973751;28;20501;-63
2022/06/07 04:51:27;;;;;;;0.20;0.20;;;;;;;12.47;60.78;97400.09;4973702;28;20037;-63
2022/06/07 04:53:54;;;;;;;0.20;0.20;;;;;;;12.49;60.88;97408.88;4973196;28;20046;-62
2022/06/07 04:56:23;;;;;;;0.20;0.20;;;;;;;12.45;60.95;97402.28;4973568;28;20038;-64
2022/06/07 04:58:49;;;;;;;0.32;0.32;;;;;;;12.45;61.13;97396.75;4973800;28;20050;-63
2022/06/07 05:01:22;;;;;;;0.75;0.30;;;;;;;12.45;61.01;97391.25;4973586;28;20550;-63
2022/06/07 05:03:48;;;;;;;0.38;0.30;;;;;;;12.46;61.32;97398.41;4973241;28;20053;-64
2022/06/07 05:06:29;;;;;;;0.40;0.40;;;;;;;12.51;61.37;97384.63;4973223;28;20448;-63
2022/06/07 05:09:02;;;;;;;0.30;0.30;;;;;;;12.52;61.41;97385.47;4973612;28;20039;-63
2022/06/07 05:11:28;;;;;;;0.10;0.10;;;;;;;12.47;61.44;97393.72;4973207;28;20072;-63
2022/06/07 05:13:56;;;;;;;0.40;0.40;;;;;;;12.44;61.59;97387.69;4972785;28;20047;-63
2022/06/07 05:16:22;;;;;;;0.22;0.20;;;;;;;12.33;62.10;97379.75;4973133;28;20058;-66
2022/06/07 05:18:50;;;;;;;0.35;0.35;;;;;;;12.22;62.37;97381.72;4973470;28;20464;-64
2022/06/07 05:21:16;;;;;;;0.10;0.10;;;;;;;12.19;62.81;97377.63;4973322;28;20078;-65
2022/06/07 05:23:43;;;;;;;0.20;0.20;;;;;;;12.14;62.96;97382.31;4973614;28;20038;-65
2022/06/07 05:26:12;;;;;;;2.47;0.57;;;;;;;12.03;63.05;97395.28;4973348;28;20504;-64
2022/06/07 05:28:41;;;;;;;0.35;0.30;;;;;;;11.92;63.56;97391.69;4973327;28;20046;-65
2022/06/07 05:31:07;;;;;;;0.60;0.28;;;;;;;11.81;63.68;97387.31;4972912;28;20035;-65
2022/06/07 05:33:32;;;;;;;0.20;0.20;;;;;;;11.74;63.95;97391.16;4973267;28;20404;-64
2022/06/07 05:35:58;;;;;;;0.40;0.40;;;;;;;11.79;63.96;97384.81;4972725;28;20061;-65
2022/06/07 05:38:25;;;;;;;0.60;0.52;;;;;;;11.77;64.05;97395.28;4973414;28;20098;-65
2022/06/07 05:40:54;;;;;;;0.88;0.57;;;;;;;11.68;64.34;97391.47;4988363;28;20058;-66
2022/06/07 05:43:20;;;;;;;0.20;0.20;;;;;;;11.67;64.30;97393.38;4972744;28;20050;-65
2022/06/07 05:45:50;;;;;;;0.30;0.30;;;;;;;11.62;64.68;97387.88;4972815;28;20042;-66
2022/06/07 05:48:17;;;;;;;11.27;0.55;;;;;;;11.54;64.69;97393.94;4972924;28;20408;-66
2022/06/07 05:50:44;;;;;;;0.20;0.20;;;;;;;11.48;65.00;97387.59;4973268;28;20070;-67
2022/06/07 05:53:10;;;;;;;0.20;0.20;;;;;;;11.40;65.37;97389.00;4973271;28;20074;-66
2022/06/07 05:55:36;;;;;;;0.20;0.20;;;;;;;11.29;65.49;97390.09;4975122;28;20229;-65
2022/06/07 05:58:02;;;;;;;0.20;0.20;;;;;;;11.22;65.80;97381.31;4980450;28;20047;-67
2022/06/07 06:00:30;;;;;;;0.30;0.30;;;;;;;11.10;66.08;97394.47;4972215;28;20082;-66
2022/06/07 06:02:55;;;;;;;0.30;0.30;;;;;;;11.03;66.14;97387.31;4972082;28;20453;-67
2022/06/07 06:05:21;;;;;;;0.20;0.20;;;;;;;10.96;66.69;97373.03;4971881;28;20105;-68
2022/06/07 06:10:31;;;;;;;0.52;0.40;;;;;;;10.91;66.54;97385.94;4972081;28;20042;-66
2022/06/07 06:12:57;;;;;;;0.70;0.50;;;;;;;10.86;66.70;97373.00;4971738;28;20114;-67
2022/06/07 06:15:23;;;;;;;0.40;0.40;;;;;;;10.83;66.79;97377.13;4971373;28;20046;-66
2022/06/07 06:17:48;;;;;;;0.10;0.10;;;;;;;10.82;66.87;97393.88;4971927;28;20564;-66
2022/06/07 06:20:14;;;;;;;0.20;0.20;;;;;;;10.77;67.06;97380.97;4984402;28;20101;-71
2022/06/07 06:22:40;;;;;;;0.30;0.30;;;;;;;10.74;67.14;97378.75;4991138;28;20500;-67
2022/06/07 06:25:08;;;;;;;0.17;0.17;;;;;;;10.77;67.04;97389.19;4991150;28;20038;-68
2022/06/07 06:27:34;;;;;;;0.20;0.20;;;;;;;10.74;67.26;97392.50;4989778;28;20048;-71
2022/06/07 06:30:00;;;;;;;0.20;0.20;;;;;;;10.72;67.29;97383.72;4991373;28;20038;-69
2022/06/07 06:32:26;;;;;;;0.20;0.20;;;;;;;10.76;67.46;97379.34;4991209;28;20034;-70
2022/06/07 06:34:52;;;;;;;0.28;0.28;;;;;;;10.78;67.58;97382.63;4991118;28;20049;-69
2022/06/07 06:37:18;;;;;;;0.20;0.20;;;;;;;10.82;67.44;97378.25;4991591;28;20080;-69
2022/06/07 06:39:44;;;;;;;0.20;0.20;;;;;;;10.86;67.56;97373.88;4991037;28;20084;-67
2022/06/07 06:42:11;;;;;;;0.30;0.30;;;;;;;10.89;67.74;97357.94;4990522;28;20042;-68
2022/06/07 06:44:37;;;;;;;0.20;0.20;;;;;;;10.87;68.79;97353.53;4990441;28;20404;-67
2022/06/07 06:47:03;;;;;;;0.22;0.22;;;;;;;10.87;69.80;97356.28;4991654;28;20046;-67
2022/06/07 06:49:29;;;;;;;0.20;0.20;;;;;;;10.87;70.75;97348.03;4994924;28;20042;-67
2022/06/07 06:51:59;;;;;;;0.30;0.30;;;;;;;10.87;71.71;97352.72;4986037;28;20042;-66
2022/06/07 06:54:26;;;;;;;0.17;0.17;;;;;;;10.94;72.04;97344.19;4980993;28;20039;-67
2022/06/07 06:56:51;;;;;;;0.15;0.15;;;;;;;10.97;72.87;97341.72;4979887;28;20489;-65
2022/06/07 06:59:18;;;;;;;0.20;0.20;;;;;;;10.97;73.54;97324.44;4975465;28;20047;-67
2022/06/07 07:01:44;;;;;;;0.20;0.20;;;;;;;10.95;74.20;97332.13;4974706;28;20519;-68
2022/06/07 07:04:15;;;;;;;0.20;0.20;;;;;;;10.94;74.90;97327.72;4975069;28;20042;-67
2022/06/07 07:06:41;;;;;;;0.10;0.10;;;;;;;10.90;75.39;97326.63;4975017;28;20054;-68
2022/06/07 07:09:08;;;;;;;0.30;0.30;;;;;;;10.83;75.83;97308.47;4974640;28;20121;-65
2022/06/07 07:11:41;;;;;;;0.10;0.10;;;;;;;10.83;76.44;97302.19;4974532;28;20070;-67
2022/06/07 07:14:08;;;;;;;0.20;0.20;;;;;;;10.77;76.83;97289.56;4974210;28;20043;-65
2022/06/07 07:16:38;;;;;;;0.20;0.20;;;;;;;10.78;76.97;97288.47;4974328;28;20051;-65
2022/06/07 07:19:04;;;;;;;0.30;0.30;;;;;;;10.85;77.17;97283.50;4991726;28;20105;-66
2022/06/07 07:21:36;;;;;;;0.57;0.57;;;;;;;10.76;77.69;97283.25;4992267;28;20038;-66
2022/06/07 07:24:10;;;;;;;1.27;0.30;;;;;;;10.76;77.97;97296.13;4992555;28;20070;-65
2022/06/07 07:26:36;;;;;;;0.20;0.20;;;;;;;10.82;78.04;97273.91;4992906;28;20038;-66
2022/06/07 07:29:03;;;;;;;0.20;0.20;;;;;;;10.80;78.34;97269.78;4992097;28;20042;-67
2022/06/07 07:31:33;;;;;;;0.30;0.30;;;;;;;10.77;78.67;97271.16;4991824;28;20559;-67
2022/06/07 07:34:00;;;;;;;0.32;0.32;;;;;;;10.74;78.78;97249.72;4991890;28;20084;-67
2022/06/07 07:36:26;;;;;;;0.45;0.30;;;;;;;10.80;78.96;97261.53;4991946;28;20069;-67
2022/06/07 07:38:53;;;;;;;2.85;0.40;;;;;;;10.83;79.10;97245.34;4992028;28;20069;-67
2022/06/07 07:41:26;;;;;;;0.45;0.45;;;;;;;10.82;79.22;97243.72;4990672;28;20096;-67
2022/06/07 07:43:53;;;;;;;0.43;0.43;;;;;;;10.82;79.53;97237.38;4991561;28;21180;-67
2022/06/07 07:46:21;;;;;;;0.20;0.20;;;;;;;10.84;79.54;97233.25;4993404;28;20121;-68
2022/06/07 07:48:48;;;;;;;0.20;0.20;;;;;;;10.81;79.89;97244.78;4993425;28;20134;-67
2022/06/07 07:51:23;;;;;;;0.22;0.22;;;;;;;10.87;80.05;97253.84;4993177;28;20050;-67
2022/06/07 07:53:48;;;;;;;0.20;0.20;;;;;;;11.03;79.75;97244.50;4993245;28;20101;-67
2022/06/07 07:56:15;;;;;;;0.75;0.73;;;;;;;11.07;79.76;97236.56;4987153;28;20046;-67
2022/06/07 07:58:41;;;;;;;1.85;0.63;;;;;;;11.18;79.73;97238.16;4993166;28;20046;-68
2022/06/07 08:01:10;;;;;;;1.33;0.30;;;;;;;11.16;80.04;97237.63;4993066;28;20054;-67
2022/06/07 08:03:37;;;;;;;0.10;0.10;;;;;;;11.12;80.29;97228.28;4992955;28;20042;-68
2022/06/07 08:06:05;;;;;;;0.43;0.43;;;;;;;11.14;80.25;97217.84;4993322;28;20088;-68
2022/06/07 08:08:31;;;;;;;0.28;0.28;;;;;;;11.10;80.57;97222.25;4993023;28;20109;-68
2022/06/07 08:10:56;;;;;;;0.20;0.20;;;;;;;11.10;80.91;97199.44;4993181;28;20062;-69
2022/06/07 08:13:22;;;;;;;0.20;0.20;;;;;;;10.99;81.08;97215.13;4975113;28;20117;-67
2022/06/07 08:15:48;;;;;;;0.75;0.63;;;;;;;10.96;81.34;97229.41;4992816;28;20050;-68
2022/06/07 08:18:13;;;;;;;0.20;0.20;;;;;;;10.98;81.57;97228.03;4993153;28;20046;-67
2022/06/07 08:20:39;;;;;;;0.20;0.20;;;;;;;10.91;81.80;97207.44;4990892;28;20094;-68
2022/06/07 08:23:07;;;;;;;0.60;0.60;;;;;;;10.89;81.91;97202.22;4991202;28;20046;-68
2022/06/07 08:25:34;;;;;;;0.30;0.30;;;;;;;10.82;82.25;97210.75;4992837;28;20044;-69
2022/06/07 08:28:02;;;;;;;0.22;0.22;;;;;;;10.80;82.33;97215.69;4986165;28;20124;-68
2022/06/07 08:30:28;;;;;;;0.20;0.20;;;;;;;10.75;82.42;97220.34;4977187;28;20429;-67
2022/06/07 08:32:54;;;;;;;0.20;0.20;;;;;;;10.71;82.63;97208.28;4973619;28;20031;-69
2022/06/07 08:38:05;;;;;;;0.20;0.20;;;;;;;10.83;82.57;97214.31;4976422;28;20101;-70
2022/06/07 08:40:43;;;;;;;0.25;0.25;;;;;;;10.83;82.50;97203.34;4984252;28;20054;-70
2022/06/07 08:43:21;;;;;;;0.20;0.20;;;;;;;10.84;82.71;97203.06;4992762;28;20049;-69
2022/06/07 08:45:48;;;;;;;0.20;0.20;;;;;;;10.83;82.85;97206.06;4992679;28;20050;-70
2022/06/07 08:48:24;;;;;;;0.20;0.20;;;;;;;10.87;82.74;97188.78;4992562;28;20049;-70
2022/06/07 08:51:20;;;;;;;0.20;0.20;;;;;;;10.89;82.89;97190.44;4992636;28;20496;-69
2022/06/07 08:53:51;;;;;;;0.20;0.20;;;;;;;10.87;82.98;97169.56;4992447;28;20145;-70
2022/06/07 08:56:25;;;;;;;0.20;0.20;;;;;;;10.83;83.30;97171.19;4986540;28;20054;-68
2022/06/07 08:58:52;;;;;;;0.20;0.20;;;;;;;10.81;83.43;97151.44;4982736;28;20057;-68
2022/06/07 09:01:33;;;;;;;0.20;0.20;;;;;;;10.82;83.29;97164.09;4984229;28;20050;-68
2022/06/07 09:04:05;;;;;;;0.20;0.20;;;;;;;10.75;83.49;97160.78;4972766;28;20496;-69
2022/06/07 09:06:35;;;;;;;0.20;0.20;;;;;;;10.74;83.50;97183.84;4975380;28;20072;-70
2022/06/07 09:09:01;;;;;;;0.20;0.20;;;;;;;10.71;83.90;97173.41;4981134;28;20042;-70
2022/06/07 09:14:39;;;;;;;0.20;0.20;;;;;;;10.76;84.03;97154.22;4986500;28;20049;-68
2022/06/07 09:17:12;;;;;;;0.52;0.52;;;;;;;10.75;84.06;97162.69;5005659;28;20512;-72
2022/06/07 09:20:18;;;;;;;0.20;0.20;;;;;;;10.79;84.05;97181.09;4991830;28;20046;-72
2022/06/07 09:23:15;;;;;;;;;;;;;;;10.76;84.03;97143.22;4977233;28;20050;-65
2022/06/07 09:25:48;;;;;;;0.20;0.20;;;;;;;10.76;84.29;97126.75;4991189;28;20315;-67
2022/06/07 09:28:45;;;;;;;0.20;0.20;;;;;;;10.71;84.41;97145.97;5004579;28;20078;-70
2022/06/07 09:31:15;;;;;;;0.20;0.20;;;;;;;10.67;84.50;97161.34;4977400;28;20053;-69
2022/06/07 09:33:51;;;;;;;0.65;0.43;;;;;;;10.68;84.68;97113.59;4981151;28;20421;-69
2022/06/07 09:36:29;;;;;;;0.20;0.20;;;;;;;10.66;84.71;97118.53;4988699;28;20053;-69
2022/06/07 09:39:00;;;;;;;0.20;0.20;;;;;;;10.67;84.80;97106.44;4991737;28;20038;-67
2022/06/07 09:41:37;;;;;;;0.40;0.40;;;;;;;10.70;84.82;97111.38;4988465;28;20046;-68
2022/06/07 09:44:12;;;;;;;0.20;0.20;;;;;;;10.75;84.62;97116.03;4990414;28;20046;-73
2022/06/07 09:46:38;;;;;;;0.40;0.30;;;;;;;10.74;84.82;97096.00;4991712;28;20047;-70
2022/06/07 09:49:04;;;;;;;0.20;0.20;;;;;;;10.70;84.92;97072.94;4990947;28;20113;-70
2022/06/07 09:51:39;;;;;;;0.30;0.30;;;;;;;10.64;85.09;97096.03;4991267;28;20042;-70
2022/06/07 09:54:15;;;;;;;0.20;0.20;;;;;;;10.62;85.25;97062.56;4991733;28;20049;-69
2022/06/07 09:57:06;;;;;;;0.22;0.22;;;;;;;10.58;85.34;97059.53;4985640;28;20526;-70
2022/06/07 10:00:09;;;;;;;0.20;0.20;;;;;;;10.57;85.34;97071.63;4972219;28;20133;-70
2022/06/07 10:03:24;;;;;;;0.45;0.45;;;;;;;10.55;85.62;97062.81;4972097;28;20504;-72
2022/06/07 10:06:10;;;;;;;0.30;0.30;;;;;;;10.55;85.60;97081.22;4989028;28;20038;-69
2022/06/07 10:09:01;;;;;;;0.10;0.10;;;;;;;10.56;85.47;97091.13;4991292;28;20038;-70
2022/06/07 10:12:05;;;;;;;0.20;0.20;;;;;;;10.54;85.40;97098.78;4991686;28;20448;-73
2022/06/07 10:14:48;;;;;;;0.15;0.15;;;;;;;10.50;85.73;97082.06;4951294;28;20050;-71
2022/06/07 10:17:33;;;;;;;0.20;0.20;;;;;;;10.50;86.07;97084.81;4982133;28;20042;-68
2022/06/07 10:20:38;;;;;;;0.20;0.20;;;;;;;10.50;85.79;97088.38;4991485;28;20042;-72
2022/06/07 10:23:05;;;;;;;0.20;0.20;;;;;;;10.48;86.22;97074.09;4994619;28;20065;-71
2022/06/07 10:25:46;;;;;;;0.20;0.20;;;;;;;10.52;85.91;97072.44;4994956;28;20074;-70
2022/06/07 10:28:32;;;;;;;0.10;0.10;;;;;;;10.52;85.93;97080.66;4995106;28;20070;-71
2022/06/07 10:31:22;;;;;;;0.10;0.10;;;;;;;10.55;86.14;97060.09;4995218;28;20466;-73
2022/06/07 10:34:21;;;;;;;0.10;0.10;;;;;;;10.50;85.99;97036.22;4995361;28;20042;-73
2022/06/07 10:37:06;;;;;;;0.20;0.20;;;;;;;10.55;86.07;97070.25;4995387;28;20093;-71
2022/06/07 10:39:52;;;;;;;0.10;0.10;;;;;;;10.55;86.13;97059.28;4994756;28;20042;-68
2022/06/07 10:43:13;;;;;;;0.10;0.10;;;;;;;10.55;85.99;97043.63;4994478;28;20050;-70
2022/06/07 10:45:39;;;;;;;0.20;0.20;;;;;;;10.55;86.22;97048.28;4915223;29;20075;-70
2022/06/07 10:48:21;;;;;;;0.10;0.10;;;;;;;10.56;85.99;97047.19;4979496;28;20046;-69
2022/06/07 10:52:20;;;;;;;0.10;0.10;;;;;;;10.49;86.32;97037.31;4994682;28;20053;-68
2022/06/07 10:54:00;;;;;;;0.20;0.20;;;;;;;10.42;86.35;97005.78;4992932;28;20096;-69
2022/06/07 10:56:33;;;;;;;0.20;0.20;;;;;;;10.47;86.30;97008.53;4994655;28;20564;-68
2022/06/07 10:59:03;;;;;;;0.10;0.10;;;;;;;10.43;86.46;97019.22;4983483;28;20042;-68
2022/06/07 11:01:42;;;;;;;0.10;0.10;;;;;;;10.44;86.67;97009.09;4975276;28;20074;-69
2022/06/07 11:10:26;;;;;;;0.20;0.20;;;;;;;10.54;86.61;96995.34;4994573;28;20426;-69
2022/06/07 11:13:17;;;;;;;0.20;0.20;;;;;;;10.50;86.69;96981.34;4994067;28;20046;-68
2022/06/07 11:16:17;;;;;;;0.20;0.20;;;;;;;10.44;86.79;96974.22;4984944;28;20530;-68
2022/06/07 11:18:43;;;;;;;0.20;0.20;;;;;;;10.47;86.70;96961.88;4972603;28;20205;-71
2022/06/07 11:21:13;;;;;;;0.20;0.20;;;;;;;10.47;86.81;96959.13;4974226;28;20121;-69
2022/06/07 11:23:56;;;;;;;0.20;0.20;;;;;;;10.48;86.87;96960.75;4974289;28;20042;-70
2022/06/07 11:26:22;;;;;;;0.20;0.20;;;;;;;10.48;86.97;96960.75;4974410;28;20038;-67
2022/06/07 11:28:57;;;;;;;0.30;0.30;;;;;;;10.49;86.97;96944.00;4974167;28;20126;-68
2022/06/07 11:31:35;;;;;;;;;;;;;;;10.57;86.82;96937.16;4974656;28;20049;-67
2022/06/07 11:34:26;;;;;;;0.20;0.20;;;;;;;10.58;86.92;96930.53;4973235;28;19941;-67
2022/06/07 11:37:07;;;;;;;0.20;0.20;;;;;;;10.62;86.72;96917.91;4974562;28;20045;-67
2022/06/07 11:39:36;;;;;;;0.20;0.20;;;;;;;10.64;86.76;96896.47;4989076;28;20047;-66
2022/06/07 11:42:07;;;;;;;0.20;0.20;;;;;;;10.67;86.71;96892.34;4973983;28;20078;-67
2022/06/07 11:44:38;;;;;;;0.35;0.22;;;;;;;10.69;86.61;96888.22;4973604;28;20050;-66
2022/06/07 11:47:03;;;;;;;0.20;0.20;;;;;;;10.72;86.91;96928.03;4974116;28;20051;-66
2022/06/07 11:49:29;;;;;;;0.20;0.20;;;;;;;10.74;86.78;96909.34;4989190;28;20567;-66
2022/06/07 11:52:13;;;;;;;1.35;0.40;;;;;;;10.73;86.78;96910.44;4974406;28;20073;-67
2022/06/07 11:54:48;;;;;;;0.20;0.20;;;;;;;10.67;87.34;96915.16;4981671;28;20415;-65
2022/06/07 11:57:32;;;;;;;0.20;0.20;;;;;;;10.65;87.23;96897.31;4984596;28;20448;-66
2022/06/07 12:00:17;;;;;;;0.28;0.28;;;;;;;10.64;87.27;96910.19;4974115;28;20043;-66
2022/06/07 12:03:08;;;;;;;0.10;0.10;;;;;;;10.66;87.18;96893.47;4973563;28;20057;-66
2022/06/07 12:05:52;;;;;;;0.13;0.13;;;;;;;10.69;87.15;96920.34;4968729;28;20051;-67
2022/06/07 12:08:26;;;;;;;0.20;0.20;;;;;;;10.67;87.32;96914.31;4978047;28;20038;-67
2022/06/07 12:11:00;;;;;;;0.47;0.47;;;;;;;10.66;87.25;96898.97;4994079;28;20053;-67
2022/06/07 12:16:19;;;;;;;0.10;0.10;;;;;;;10.66;87.64;96905.25;4994186;28;19967;-67
2022/06/07 12:18:52;;;;;;;0.10;0.10;;;;;;;10.69;87.49;96885.47;4993933;28;20519;-66
2022/06/07 12:21:17;;;;;;;0.75;0.30;;;;;;;10.70;87.44;96900.00;4993823;28;20050;-66
2022/06/07 12:23:47;;;;;;;0.20;0.20;;;;;;;10.71;87.51;96879.72;4993800;28;20427;-65
2022/06/07 12:26:25;;;;;;;0.20;0.20;;;;;;;10.76;87.55;96871.47;4993981;28;20050;-65
2022/06/07 12:28:55;;;;;;;0.20;0.20;;;;;;;10.79;87.23;96872.78;4993808;28;20046;-66
2022/06/07 12:31:32;;;;;;;0.20;0.20;;;;;;;10.80;87.51;96863.47;4993896;28;20042;-67